createdAt,value
2019-05-14T00:01:51.288Z,7.56
2019-05-14T00:04:22.066Z,7.53
2019-05-14T00:06:52.461Z,7.51
2019-05-14T00:09:22.524Z,7.48
2019-05-14T00:11:52.747Z,7.44
2019-05-14T00:14:35.693Z,7.42
2019-05-14T00:16:55.048Z,7.39
2019-05-14T00:19:25.643Z,7.38
2019-05-14T00:21:55.978Z,7.35
2019-05-14T00:24:26.478Z,7.35
2019-05-14T00:26:56.808Z,7.31
2019-05-14T00:29:27.587Z,7.27
2019-05-14T00:31:58.088Z,7.24
2019-05-14T00:34:28.574Z,7.22
2019-05-14T00:37:01.396Z,7.19
2019-05-14T00:39:32.065Z,7.17
2019-05-14T00:42:02.743Z,7.13
2019-05-14T00:44:33.062Z,7.09
2019-05-14T00:47:03.414Z,7.04
2019-05-14T00:49:33.805Z,7.01
2019-05-14T00:52:04.154Z,6.98
2019-05-14T00:54:34.436Z,6.95
2019-05-14T00:57:04.835Z,6.92
2019-05-14T00:59:35.010Z,6.88
2019-05-14T01:02:05.458Z,6.85
2019-05-14T01:04:35.609Z,6.81
2019-05-14T01:07:14.939Z,6.80
2019-05-14T01:09:52.356Z,6.75
2019-05-14T01:12:22.807Z,6.78
2019-05-14T01:15:06.638Z,6.74
2019-05-14T01:17:24.954Z,6.72
2019-05-14T01:19:55.264Z,6.68
2019-05-14T01:22:25.671Z,6.63
2019-05-14T01:24:55.942Z,6.59
2019-05-14T01:27:26.517Z,6.58
2019-05-14T01:29:56.767Z,6.58
2019-05-14T01:32:27.122Z,6.58
2019-05-14T01:34:57.306Z,6.56
2019-05-14T01:37:27.818Z,6.55
2019-05-14T01:39:58.007Z,6.54
2019-05-14T01:42:28.181Z,6.52
2019-05-14T01:44:58.400Z,6.48
2019-05-14T01:47:33.919Z,6.49
2019-05-14T01:50:04.283Z,6.52
2019-05-14T01:52:34.669Z,6.51
2019-05-14T01:55:05.014Z,6.52
2019-05-14T01:57:35.418Z,6.51
2019-05-14T02:00:08.363Z,6.53
2019-05-14T02:02:38.609Z,6.53
2019-05-14T02:05:09.421Z,6.53
2019-05-14T02:07:41.816Z,6.51
2019-05-14T02:10:12.382Z,6.48
2019-05-14T02:12:42.917Z,6.46
2019-05-14T02:15:13.489Z,6.43
2019-05-14T02:17:43.900Z,6.39
2019-05-14T02:20:14.420Z,6.37
2019-05-14T02:22:44.877Z,6.34
2019-05-14T02:25:15.555Z,6.32
2019-05-14T02:27:46.024Z,6.29
2019-05-14T02:30:20.268Z,6.26
2019-05-14T02:32:49.771Z,6.24
2019-05-14T02:35:20.405Z,6.21
2019-05-14T02:37:50.837Z,6.19
2019-05-14T02:40:21.153Z,6.16
2019-05-14T02:42:51.325Z,6.14
2019-05-14T02:45:21.980Z,6.12
2019-05-14T02:47:52.254Z,6.10
2019-05-14T02:50:22.702Z,6.07
2019-05-14T02:52:52.978Z,6.07
2019-05-14T02:55:23.353Z,6.07
2019-05-14T02:57:53.603Z,6.04
2019-05-14T03:00:24.051Z,6.01
2019-05-14T03:02:59.522Z,6.08
2019-05-14T03:05:29.485Z,6.00
2019-05-14T03:08:00.084Z,5.95
2019-05-14T03:10:30.630Z,5.93
2019-05-14T03:13:01.033Z,5.90
2019-05-14T03:15:31.330Z,5.90
2019-05-14T03:18:01.605Z,5.89
2019-05-14T03:20:32.088Z,5.90
2019-05-14T03:23:08.694Z,5.92
2019-05-14T03:25:34.672Z,5.94
2019-05-14T03:28:05.096Z,5.92
2019-05-14T03:30:35.542Z,5.94
2019-05-14T03:33:12.589Z,5.95
2019-05-14T03:35:44.231Z,5.96
2019-05-14T03:38:11.652Z,5.97
2019-05-14T03:40:43.527Z,5.96
2019-05-14T03:43:13.752Z,5.97
2019-05-14T03:45:44.101Z,5.98
2019-05-14T03:48:14.332Z,5.99
2019-05-14T03:50:44.620Z,5.99
2019-05-14T03:53:15.343Z,6.00
2019-05-14T03:55:45.709Z,6.02
2019-05-14T03:58:20.671Z,6.03
2019-05-14T04:01:00.415Z,6.04
2019-05-14T04:03:31.848Z,6.08
2019-05-14T04:06:03.906Z,6.09
2019-05-14T04:08:38.903Z,6.10
2019-05-14T04:11:09.810Z,6.12
2019-05-14T04:13:41.488Z,6.15
2019-05-14T04:16:15.383Z,6.18
2019-05-14T04:18:50.359Z,6.23
2019-05-14T04:21:22.429Z,6.29
2019-05-14T04:23:52.718Z,6.35
2019-05-14T04:26:23.086Z,6.41
2019-05-14T04:28:53.346Z,6.46
2019-05-14T04:31:23.523Z,6.53
2019-05-14T04:33:58.934Z,6.59
2019-05-14T04:36:29.987Z,6.68
2019-05-14T04:39:00.590Z,6.76
2019-05-14T04:41:31.126Z,6.87
2019-05-14T04:44:01.553Z,6.99
2019-05-14T04:46:31.901Z,7.09
2019-05-14T04:49:02.218Z,7.18
2019-05-14T04:51:33.907Z,7.27
2019-05-14T04:54:04.279Z,7.38
2019-05-14T04:56:34.574Z,7.47
2019-05-14T04:59:04.782Z,7.57
2019-05-14T05:01:34.935Z,7.66
2019-05-14T05:04:05.128Z,7.73
2019-05-14T05:06:35.442Z,7.80
2019-05-14T05:09:09.674Z,7.91
2019-05-14T05:11:40.011Z,8.04
2019-05-14T05:14:10.318Z,8.15
2019-05-14T05:16:40.662Z,8.24
2019-05-14T05:19:10.849Z,8.31
2019-05-14T05:21:41.096Z,8.42
2019-05-14T05:24:11.425Z,8.51
2019-05-14T05:26:41.695Z,8.63
2019-05-14T05:29:11.843Z,8.76
2019-05-14T05:31:42.127Z,8.87
2019-05-14T05:34:12.285Z,9.00
2019-05-14T05:36:42.490Z,9.08
2019-05-14T05:39:12.668Z,9.13
2019-05-14T05:41:42.953Z,9.14
2019-05-14T05:44:13.140Z,9.23
2019-05-14T05:46:43.439Z,9.34
2019-05-14T05:49:13.546Z,9.51
2019-05-14T05:51:43.769Z,9.69
2019-05-14T05:54:14.107Z,9.86
2019-05-14T05:56:44.318Z,10.00
2019-05-14T05:59:14.483Z,10.12
2019-05-14T06:01:46.534Z,10.26
2019-05-14T06:04:18.174Z,10.39
2019-05-14T06:06:48.570Z,10.58
2019-05-14T06:09:18.837Z,10.79
2019-05-14T06:11:49.048Z,10.98
2019-05-14T06:14:19.397Z,11.15
2019-05-14T06:16:49.721Z,11.33
2019-05-14T06:19:20.119Z,11.50
2019-05-14T06:21:50.386Z,11.66
2019-05-14T06:24:20.776Z,11.83
2019-05-14T06:26:51.111Z,11.96
2019-05-14T06:29:21.278Z,12.06
2019-05-14T06:31:51.652Z,12.16
2019-05-14T06:34:21.976Z,12.23
2019-05-14T06:36:52.316Z,12.27
2019-05-14T06:39:22.593Z,12.30
2019-05-14T06:41:52.984Z,12.35
2019-05-14T06:44:23.185Z,12.39
2019-05-14T06:46:53.609Z,12.46
2019-05-14T06:49:23.788Z,12.60
2019-05-14T06:51:54.097Z,12.72
2019-05-14T06:54:24.331Z,12.84
2019-05-14T06:56:54.658Z,12.91
2019-05-14T06:59:24.842Z,12.96
2019-05-14T07:01:55.108Z,13.02
2019-05-14T07:04:25.348Z,13.11
2019-05-14T07:06:55.787Z,13.20
2019-05-14T07:09:25.993Z,13.30
2019-05-14T07:11:58.504Z,13.40
2019-05-14T07:14:28.460Z,13.53
2019-05-14T07:16:59.067Z,13.61
2019-05-14T07:19:29.714Z,13.67
2019-05-14T07:22:00.404Z,13.74
2019-05-14T07:24:30.669Z,13.88
2019-05-14T07:27:00.903Z,14.01
2019-05-14T07:29:31.117Z,14.14
2019-05-14T07:32:01.313Z,14.27
2019-05-14T07:34:31.640Z,14.35
2019-05-14T07:37:01.848Z,14.42
2019-05-14T07:39:32.100Z,14.51
2019-05-14T07:42:02.688Z,14.64
2019-05-14T07:44:32.936Z,14.73
2019-05-14T07:47:03.219Z,14.84
2019-05-14T07:49:33.395Z,14.93
2019-05-14T07:52:03.775Z,15.02
2019-05-14T07:54:33.961Z,15.16
2019-05-14T07:57:04.219Z,15.33
2019-05-14T07:59:34.528Z,15.37
2019-05-14T08:02:04.793Z,15.41
2019-05-14T08:04:35.000Z,15.54
2019-05-14T08:07:05.222Z,15.73
2019-05-14T08:09:35.319Z,15.91
2019-05-14T08:12:09.071Z,16.08
2019-05-14T08:14:53.062Z,16.25
2019-05-14T08:17:11.010Z,16.42
2019-05-14T08:19:41.220Z,16.56
2019-05-14T08:22:11.630Z,16.71
2019-05-14T08:24:41.932Z,16.76
2019-05-14T08:27:12.098Z,16.72
2019-05-14T08:29:42.435Z,16.54
2019-05-14T08:32:12.785Z,16.71
2019-05-14T08:34:43.023Z,16.99
2019-05-14T08:37:15.193Z,17.17
2019-05-14T08:39:45.430Z,17.18
2019-05-14T08:42:15.812Z,17.22
2019-05-14T08:44:50.344Z,17.37
2019-05-14T08:47:18.402Z,17.48
2019-05-14T08:49:50.719Z,17.35
2019-05-14T08:52:20.864Z,17.35
2019-05-14T08:55:05.367Z,17.44
2019-05-14T08:57:23.193Z,17.60
2019-05-14T08:59:53.432Z,17.68
2019-05-14T09:02:23.777Z,17.71
2019-05-14T09:04:55.223Z,17.78
2019-05-14T09:07:25.655Z,17.87
2019-05-14T09:09:55.872Z,17.87
2019-05-14T09:12:28.015Z,17.89
2019-05-14T09:14:58.916Z,17.97
2019-05-14T09:17:29.445Z,18.00
2019-05-14T09:20:06.552Z,18.05
2019-05-14T09:22:31.777Z,18.12
2019-05-14T09:25:01.968Z,18.33
2019-05-14T09:27:32.134Z,18.48
2019-05-14T09:30:02.346Z,18.61
2019-05-14T09:32:33.454Z,18.77
2019-05-14T09:35:03.710Z,18.89
2019-05-14T09:37:33.969Z,19.00
2019-05-14T09:40:05.913Z,19.07
2019-05-14T09:42:38.963Z,19.15
2019-05-14T09:45:11.007Z,19.20
2019-05-14T09:47:41.027Z,19.20
2019-05-14T09:50:19.238Z,19.22
2019-05-14T09:52:44.034Z,19.21
2019-05-14T09:55:14.624Z,19.14
2019-05-14T09:57:44.870Z,19.16
2019-05-14T10:00:15.362Z,19.28
2019-05-14T10:02:48.866Z,19.41
2019-05-14T10:05:19.480Z,19.48
2019-05-14T10:07:50.154Z,19.47
2019-05-14T10:10:21.056Z,19.55
2019-05-14T10:12:56.364Z,19.66
2019-05-14T10:15:23.490Z,19.81
2019-05-14T10:17:54.149Z,19.84
2019-05-14T10:20:36.504Z,19.94
2019-05-14T10:22:58.446Z,20.07
2019-05-14T10:25:28.787Z,20.13
2019-05-14T10:27:59.232Z,20.14
2019-05-14T10:30:29.785Z,20.11
2019-05-14T10:33:09.525Z,20.10
2019-05-14T10:35:32.258Z,20.20
2019-05-14T10:38:02.584Z,20.25
2019-05-14T10:40:33.035Z,20.28
2019-05-14T10:43:03.322Z,20.42
2019-05-14T10:45:33.597Z,20.54
2019-05-14T10:48:03.893Z,20.69
2019-05-14T10:50:37.887Z,20.73
2019-05-14T10:53:09.022Z,20.77
2019-05-14T10:55:38.934Z,20.93
2019-05-14T10:58:09.183Z,21.07
2019-05-14T11:00:41.991Z,21.00
2019-05-14T11:03:11.693Z,21.10
2019-05-14T11:05:41.910Z,21.38
2019-05-14T11:08:12.298Z,21.59
2019-05-14T11:10:42.837Z,21.77
2019-05-14T11:13:13.136Z,21.96
2019-05-14T11:15:43.461Z,22.31
2019-05-14T11:18:13.652Z,22.47
2019-05-14T11:20:43.899Z,22.67
2019-05-14T11:23:14.152Z,22.84
2019-05-14T11:25:44.458Z,22.88
2019-05-14T11:28:14.786Z,22.90
2019-05-14T11:30:45.109Z,23.03
2019-05-14T11:33:15.401Z,23.10
2019-05-14T11:35:45.688Z,23.21
2019-05-14T11:38:28.449Z,23.33
2019-05-14T11:40:49.557Z,23.48
2019-05-14T11:43:19.966Z,23.53
2019-05-14T11:45:50.315Z,23.68
2019-05-14T11:48:20.604Z,23.90
2019-05-14T11:50:53.864Z,24.12
2019-05-14T11:53:25.165Z,24.34
2019-05-14T11:55:55.517Z,24.57
2019-05-14T11:58:25.779Z,24.84
2019-05-14T12:00:58.336Z,25.10
2019-05-14T12:03:28.592Z,25.41
2019-05-14T12:05:59.039Z,25.89
2019-05-14T12:08:29.289Z,26.31
2019-05-14T12:10:59.571Z,26.68
2019-05-14T12:13:32.662Z,27.01
2019-05-14T12:16:01.905Z,27.12
2019-05-14T12:18:32.429Z,27.47
2019-05-14T12:21:02.581Z,27.64
2019-05-14T12:23:33.062Z,27.95
2019-05-14T12:26:03.648Z,28.15
2019-05-14T12:28:33.945Z,28.51
2019-05-14T12:31:04.104Z,28.87
2019-05-14T12:33:34.378Z,29.02
2019-05-14T12:36:04.581Z,28.97
2019-05-14T12:38:34.965Z,29.18
2019-05-14T12:41:05.308Z,29.61
2019-05-14T12:43:35.578Z,29.86
2019-05-14T12:46:10.287Z,30.06
2019-05-14T12:48:39.403Z,30.28
2019-05-14T12:51:09.646Z,30.43
2019-05-14T12:53:40.013Z,30.43
2019-05-14T12:56:10.409Z,30.50
2019-05-14T12:58:45.446Z,30.50
2019-05-14T13:01:12.832Z,30.57
2019-05-14T13:03:42.955Z,30.55
2019-05-14T13:06:13.229Z,30.56
2019-05-14T13:08:43.591Z,30.74
2019-05-14T13:11:14.312Z,31.01
2019-05-14T13:13:44.675Z,31.23
2019-05-14T13:16:14.972Z,31.46
2019-05-14T13:18:45.332Z,31.62
2019-05-14T13:21:15.609Z,31.68
2019-05-14T13:23:45.969Z,31.55
2019-05-14T13:26:18.717Z,31.72
2019-05-14T13:28:50.880Z,31.81
2019-05-14T13:31:20.369Z,31.88
2019-05-14T13:33:50.853Z,32.03
2019-05-14T13:36:21.223Z,32.26
2019-05-14T13:38:51.562Z,32.55
2019-05-14T13:41:21.800Z,33.11
2019-05-14T13:43:52.046Z,33.73
2019-05-14T13:46:22.391Z,34.26
2019-05-14T13:48:52.667Z,35.53
2019-05-14T13:51:23.042Z,34.83
2019-05-14T13:53:53.136Z,34.68
2019-05-14T13:56:23.454Z,34.52
2019-05-14T13:58:53.791Z,34.43
2019-05-14T14:01:24.065Z,34.31
2019-05-14T14:04:06.802Z,33.89
2019-05-14T14:06:26.531Z,33.78
2019-05-14T14:08:59.314Z,33.64
2019-05-14T14:11:31.497Z,33.76
2019-05-14T14:14:01.189Z,33.78
2019-05-14T14:16:31.435Z,33.88
2019-05-14T14:19:03.842Z,34.02
2019-05-14T14:21:33.728Z,34.32
2019-05-14T14:24:03.974Z,34.40
2019-05-14T14:26:34.162Z,34.29
2019-05-14T14:29:04.631Z,34.08
2019-05-14T14:31:35.008Z,33.82
2019-05-14T14:34:05.536Z,33.85
2019-05-14T14:36:38.446Z,33.75
2019-05-14T14:39:09.762Z,33.55
2019-05-14T14:41:39.895Z,33.50
2019-05-14T14:44:10.238Z,33.40
2019-05-14T14:46:40.636Z,33.13
2019-05-14T14:49:11.207Z,33.43
2019-05-14T14:51:44.805Z,33.73
2019-05-14T14:54:16.154Z,33.63
2019-05-14T14:56:45.479Z,33.37
2019-05-14T14:59:18.642Z,33.01
2019-05-14T15:01:50.219Z,32.60
2019-05-14T15:04:19.767Z,32.32
2019-05-14T15:06:50.846Z,32.40
2019-05-14T15:09:21.603Z,32.63
2019-05-14T15:11:51.781Z,32.73
2019-05-14T15:14:21.876Z,32.50
2019-05-14T15:16:51.973Z,32.35
2019-05-14T15:19:22.205Z,32.32
2019-05-14T15:21:52.449Z,32.78
2019-05-14T15:24:22.709Z,32.90
2019-05-14T15:26:53.087Z,32.79
2019-05-14T15:29:23.293Z,33.14
2019-05-14T15:31:53.500Z,33.15
2019-05-14T15:34:23.894Z,33.19
2019-05-14T15:36:54.243Z,33.39
2019-05-14T15:39:24.648Z,33.85
2019-05-14T15:41:54.894Z,34.35
2019-05-14T15:44:25.131Z,34.43
2019-05-14T15:46:55.304Z,35.12
2019-05-14T15:49:28.206Z,35.64
2019-05-14T15:51:57.712Z,35.88
2019-05-14T15:54:39.808Z,36.13
2019-05-14T15:57:00.343Z,36.12
2019-05-14T15:59:31.277Z,35.69
2019-05-14T16:02:02.289Z,35.61
2019-05-14T16:04:32.633Z,36.14
2019-05-14T16:07:03.263Z,35.69
2019-05-14T16:09:33.863Z,35.29
2019-05-14T16:12:04.395Z,34.93
2019-05-14T16:14:34.939Z,34.77
2019-05-14T16:17:05.270Z,34.62
2019-05-14T16:19:39.049Z,34.43
2019-05-14T16:22:09.816Z,34.13
2019-05-14T16:24:55.810Z,33.77
2019-05-14T16:27:12.843Z,33.36
2019-05-14T16:29:45.900Z,32.97
2019-05-14T16:32:17.984Z,32.60
2019-05-14T16:34:48.914Z,32.22
2019-05-14T16:37:19.211Z,31.86
2019-05-14T16:39:52.509Z,31.29
2019-05-14T16:42:25.613Z,30.63
2019-05-14T16:44:59.719Z,29.78
2019-05-14T16:47:32.375Z,29.29
2019-05-14T16:50:08.684Z,29.00
2019-05-14T16:52:41.701Z,28.65
2019-05-14T16:55:23.134Z,28.68
2019-05-14T16:57:41.654Z,29.12
2019-05-14T17:00:12.519Z,29.41
2019-05-14T17:02:42.664Z,29.28
2019-05-14T17:05:13.240Z,29.10
2019-05-14T17:07:43.373Z,29.09
2019-05-14T17:10:13.714Z,29.24
2019-05-14T17:12:52.615Z,29.20
2019-05-14T17:15:18.092Z,28.89
2019-05-14T17:17:48.330Z,28.38
2019-05-14T17:20:19.373Z,27.71
2019-05-14T17:22:50.607Z,27.43
2019-05-14T17:25:27.220Z,27.62
2019-05-14T17:27:52.956Z,27.69
2019-05-14T17:30:23.290Z,27.97
2019-05-14T17:32:53.682Z,28.19
2019-05-14T17:35:24.032Z,28.29
2019-05-14T17:37:54.690Z,28.01
2019-05-14T17:40:24.966Z,27.26
2019-05-14T17:42:55.378Z,26.91
2019-05-14T17:45:28.262Z,27.18
2019-05-14T17:47:58.524Z,28.12
2019-05-14T17:50:29.447Z,28.96
2019-05-14T17:53:00.303Z,29.63
2019-05-14T17:55:43.559Z,30.07
2019-05-14T17:58:02.679Z,30.28
2019-05-14T18:00:35.655Z,30.53
2019-05-14T18:03:08.729Z,30.48
2019-05-14T18:05:39.146Z,30.48
2019-05-14T18:08:09.422Z,30.34
2019-05-14T18:10:39.699Z,30.26
2019-05-14T18:13:09.895Z,30.28
2019-05-14T18:15:40.122Z,30.21
2019-05-14T18:18:10.352Z,30.19
2019-05-14T18:20:40.505Z,29.99
2019-05-14T18:23:18.158Z,29.65
2019-05-14T18:26:03.788Z,29.41
2019-05-14T18:28:21.210Z,29.14
2019-05-14T18:30:51.445Z,28.84
2019-05-14T18:33:21.536Z,28.52
2019-05-14T18:35:51.789Z,28.15
2019-05-14T18:38:21.981Z,27.56
2019-05-14T18:40:52.226Z,27.02
2019-05-14T18:43:22.308Z,26.48
2019-05-14T18:45:52.389Z,25.25
2019-05-14T18:48:22.782Z,23.72
2019-05-14T18:50:53.080Z,22.42
2019-05-14T18:53:23.570Z,21.36
2019-05-14T18:55:53.811Z,20.48
2019-05-14T18:58:26.041Z,19.77
2019-05-14T19:00:58.167Z,19.18
2019-05-14T19:03:28.612Z,18.65
2019-05-14T19:05:58.969Z,18.18
2019-05-14T19:08:29.200Z,17.76
2019-05-14T19:10:59.598Z,17.38
2019-05-14T19:13:30.395Z,17.02
2019-05-14T19:16:00.549Z,16.71
2019-05-14T19:18:31.141Z,16.40
2019-05-14T19:21:01.291Z,16.11
2019-05-14T19:23:34.182Z,15.86
2019-05-14T19:26:04.339Z,15.61
2019-05-14T19:28:34.537Z,15.35
2019-05-14T19:31:04.766Z,15.11
2019-05-14T19:33:35.011Z,14.90
2019-05-14T19:36:05.248Z,14.70
2019-05-14T19:38:35.404Z,14.48
2019-05-14T19:41:08.605Z,14.29
2019-05-14T19:43:39.094Z,14.10
2019-05-14T19:46:09.306Z,13.94
2019-05-14T19:48:39.698Z,13.80
2019-05-14T19:51:09.829Z,13.65
2019-05-14T19:53:40.048Z,13.48
2019-05-14T19:56:10.202Z,13.35
2019-05-14T19:58:40.600Z,13.24
2019-05-14T20:01:10.859Z,13.13
2019-05-14T20:03:41.079Z,13.00
2019-05-14T20:06:11.328Z,12.89
2019-05-14T20:08:41.532Z,12.78
2019-05-14T20:11:39.831Z,12.68
2019-05-14T20:14:10.119Z,12.59
2019-05-14T20:16:40.414Z,12.46
2019-05-14T20:19:10.677Z,12.40
2019-05-14T20:21:40.921Z,12.35
2019-05-14T20:24:11.094Z,12.29
2019-05-14T20:26:41.213Z,12.24
2019-05-14T20:29:11.431Z,12.32
2019-05-14T20:31:41.646Z,12.17
2019-05-14T20:34:11.806Z,12.05
2019-05-14T20:36:42.021Z,11.97
2019-05-14T20:39:12.242Z,11.87
2019-05-14T20:41:42.441Z,11.78
2019-05-14T20:44:12.749Z,11.68
2019-05-14T20:46:42.956Z,11.60
2019-05-14T20:49:13.123Z,11.51
2019-05-14T20:51:43.828Z,11.43
2019-05-14T20:54:14.058Z,11.36
2019-05-14T20:56:44.244Z,11.29
2019-05-14T20:59:14.590Z,11.21
2019-05-14T21:01:44.802Z,11.16
2019-05-14T21:04:15.101Z,11.11
2019-05-14T21:06:45.569Z,11.03
2019-05-14T21:09:16.011Z,10.98
2019-05-14T21:11:46.334Z,10.93
2019-05-14T21:14:18.258Z,10.88
2019-05-14T21:16:49.048Z,10.83
2019-05-14T21:19:19.336Z,10.79
2019-05-14T21:21:49.598Z,10.76
2019-05-14T21:24:21.848Z,10.72
2019-05-14T21:26:51.949Z,10.68
2019-05-14T21:29:22.313Z,10.62
2019-05-14T21:31:52.618Z,10.58
2019-05-14T21:34:22.975Z,10.55
2019-05-14T21:36:53.364Z,10.52
2019-05-14T21:39:24.079Z,10.46
2019-05-14T21:41:54.475Z,10.44
2019-05-14T21:44:24.720Z,10.40
2019-05-14T21:46:55.006Z,10.35
2019-05-14T21:49:25.382Z,10.29
2019-05-14T21:51:58.024Z,10.23
2019-05-14T21:54:28.120Z,10.15
2019-05-14T21:56:59.651Z,10.10
2019-05-14T21:59:30.006Z,10.01
2019-05-14T22:02:00.475Z,9.93
2019-05-14T22:04:30.975Z,9.88
2019-05-14T22:07:01.356Z,9.83
2019-05-14T22:09:31.771Z,9.77
2019-05-14T22:12:02.139Z,9.71
2019-05-14T22:14:32.419Z,9.64
2019-05-14T22:17:02.852Z,9.59
2019-05-14T22:19:33.079Z,9.55
2019-05-14T22:22:03.363Z,9.53
2019-05-14T22:24:33.796Z,9.51
2019-05-14T22:27:04.158Z,9.48
2019-05-14T22:29:34.273Z,9.46
2019-05-14T22:32:04.754Z,9.43
2019-05-14T22:34:35.108Z,9.39
2019-05-14T22:37:05.419Z,9.35
2019-05-14T22:39:35.789Z,9.33
2019-05-14T22:42:09.205Z,9.30
2019-05-14T22:44:39.280Z,9.26
2019-05-14T22:47:09.583Z,9.23
2019-05-14T22:49:39.905Z,9.20
2019-05-14T22:52:10.313Z,9.16
2019-05-14T22:54:40.576Z,9.14
2019-05-14T22:57:10.910Z,9.12
2019-05-14T22:59:41.261Z,9.11
2019-05-14T23:02:11.880Z,9.07
2019-05-14T23:04:42.446Z,9.07
2019-05-14T23:07:13.068Z,9.03
2019-05-14T23:09:43.624Z,9.01
2019-05-14T23:12:13.948Z,8.96
2019-05-14T23:14:45.337Z,8.92
2019-05-14T23:17:15.901Z,8.90
2019-05-14T23:19:48.256Z,8.89
2019-05-14T23:22:18.656Z,8.88
2019-05-14T23:24:49.231Z,8.95
2019-05-14T23:27:19.640Z,8.91
2019-05-14T23:29:50.053Z,8.89
2019-05-14T23:32:20.503Z,8.86
2019-05-14T23:34:51.022Z,8.83
2019-05-14T23:37:22.448Z,8.81
2019-05-14T23:39:53.361Z,8.80
2019-05-14T23:42:24.425Z,8.77
2019-05-14T23:44:58.377Z,8.75
2019-05-14T23:47:28.873Z,8.75
2019-05-14T23:50:02.790Z,8.74
2019-05-14T23:52:33.861Z,8.72
2019-05-14T23:55:04.537Z,8.70
2019-05-14T23:57:34.904Z,8.69
